sensor_id;sensor_type;location;lat;lon;timestamp;P1;durP1;ratioP1;P2;durP2;ratioP2
66272;SDS011;58450;52.150;4.466;2023-08-01T00:02:22;12.52;;;3.38;;
66272;SDS011;58450;52.150;4.466;2023-08-01T00:04:49;7.70;;;2.92;;
66272;SDS011;58450;52.150;4.466;2023-08-01T00:07:17;8.18;;;2.85;;
66272;SDS011;58450;52.150;4.466;2023-08-01T00:09:44;6.07;;;2.70;;
66272;SDS011;58450;52.150;4.466;2023-08-01T00:12:12;7.78;;;2.97;;
66272;SDS011;58450;52.150;4.466;2023-08-01T00:14:40;11.38;;;3.00;;
66272;SDS011;58450;52.150;4.466;2023-08-01T00:17:08;7.80;;;3.10;;
66272;SDS011;58450;52.150;4.466;2023-08-01T00:19:36;9.50;;;3.17;;
66272;SDS011;58450;52.150;4.466;2023-08-01T00:22:04;7.95;;;3.10;;
66272;SDS011;58450;52.150;4.466;2023-08-01T00:24:32;8.82;;;3.15;;
66272;SDS011;58450;52.150;4.466;2023-08-01T00:26:59;9.90;;;3.28;;
66272;SDS011;58450;52.150;4.466;2023-08-01T00:29:27;10.80;;;3.40;;
66272;SDS011;58450;52.150;4.466;2023-08-01T00:31:53;9.50;;;3.08;;
66272;SDS011;58450;52.150;4.466;2023-08-01T00:34:22;9.57;;;3.28;;
66272;SDS011;58450;52.150;4.466;2023-08-01T00:36:50;10.23;;;3.50;;
66272;SDS011;58450;52.150;4.466;2023-08-01T00:39:17;12.65;;;3.40;;
66272;SDS011;58450;52.150;4.466;2023-08-01T00:41:45;9.27;;;3.10;;
66272;SDS011;58450;52.150;4.466;2023-08-01T00:44:12;12.85;;;3.90;;
66272;SDS011;58450;52.150;4.466;2023-08-01T00:46:40;9.75;;;3.65;;
66272;SDS011;58450;52.150;4.466;2023-08-01T00:49:08;9.05;;;3.17;;
66272;SDS011;58450;52.150;4.466;2023-08-01T00:51:37;10.35;;;3.72;;
66272;SDS011;58450;52.150;4.466;2023-08-01T00:54:04;11.63;;;3.78;;
66272;SDS011;58450;52.150;4.466;2023-08-01T00:56:33;12.68;;;3.75;;
66272;SDS011;58450;52.150;4.466;2023-08-01T00:59:00;11.57;;;3.38;;
66272;SDS011;58450;52.150;4.466;2023-08-01T01:01:28;8.18;;;3.42;;
66272;SDS011;58450;52.150;4.466;2023-08-01T01:03:55;12.07;;;4.05;;
66272;SDS011;58450;52.150;4.466;2023-08-01T01:06:24;10.88;;;3.63;;
66272;SDS011;58450;52.150;4.466;2023-08-01T01:09:00;11.45;;;4.15;;
66272;SDS011;58450;52.150;4.466;2023-08-01T01:11:30;8.55;;;3.35;;
66272;SDS011;58450;52.150;4.466;2023-08-01T01:13:58;10.93;;;3.63;;
66272;SDS011;58450;52.150;4.466;2023-08-01T01:16:25;13.32;;;3.38;;
66272;SDS011;58450;52.150;4.466;2023-08-01T01:18:53;10.35;;;3.38;;
66272;SDS011;58450;52.150;4.466;2023-08-01T01:21:22;11.63;;;3.53;;
66272;SDS011;58450;52.150;4.466;2023-08-01T01:23:49;9.43;;;3.33;;
66272;SDS011;58450;52.150;4.466;2023-08-01T01:26:19;10.93;;;3.42;;
66272;SDS011;58450;52.150;4.466;2023-08-01T01:28:48;8.20;;;3.15;;
66272;SDS011;58450;52.150;4.466;2023-08-01T01:31:18;9.27;;;2.90;;
66272;SDS011;58450;52.150;4.466;2023-08-01T01:33:46;9.07;;;3.40;;
66272;SDS011;58450;52.150;4.466;2023-08-01T01:36:14;6.05;;;2.17;;
66272;SDS011;58450;52.150;4.466;2023-08-01T01:38:43;7.88;;;2.05;;
66272;SDS011;58450;52.150;4.466;2023-08-01T01:41:10;7.07;;;1.90;;
66272;SDS011;58450;52.150;4.466;2023-08-01T01:43:38;6.95;;;1.77;;
66272;SDS011;58450;52.150;4.466;2023-08-01T01:46:06;8.23;;;2.47;;
66272;SDS011;58450;52.150;4.466;2023-08-01T01:48:34;11.52;;;3.10;;
66272;SDS011;58450;52.150;4.466;2023-08-01T01:51:01;9.07;;;3.30;;
66272;SDS011;58450;52.150;4.466;2023-08-01T01:53:29;8.57;;;3.35;;
66272;SDS011;58450;52.150;4.466;2023-08-01T01:55:58;10.32;;;3.80;;
66272;SDS011;58450;52.150;4.466;2023-08-01T01:58:25;10.88;;;3.83;;
66272;SDS011;58450;52.150;4.466;2023-08-01T02:00:53;9.48;;;3.22;;
66272;SDS011;58450;52.150;4.466;2023-08-01T02:03:20;15.85;;;4.25;;
66272;SDS011;58450;52.150;4.466;2023-08-01T02:05:48;10.55;;;3.47;;
66272;SDS011;58450;52.150;4.466;2023-08-01T02:08:15;12.13;;;3.85;;
66272;SDS011;58450;52.150;4.466;2023-08-01T02:10:43;10.75;;;3.47;;
66272;SDS011;58450;52.150;4.466;2023-08-01T02:13:12;14.60;;;3.95;;
66272;SDS011;58450;52.150;4.466;2023-08-01T02:15:39;12.55;;;4.07;;
66272;SDS011;58450;52.150;4.466;2023-08-01T02:18:07;10.00;;;3.83;;
66272;SDS011;58450;52.150;4.466;2023-08-01T02:20:34;14.90;;;4.28;;
66272;SDS011;58450;52.150;4.466;2023-08-01T02:23:02;12.25;;;4.00;;
66272;SDS011;58450;52.150;4.466;2023-08-01T02:25:29;10.57;;;3.75;;
66272;SDS011;58450;52.150;4.466;2023-08-01T02:27:57;11.45;;;3.65;;
66272;SDS011;58450;52.150;4.466;2023-08-01T02:30:26;13.48;;;3.83;;
66272;SDS011;58450;52.150;4.466;2023-08-01T02:32:54;9.80;;;3.60;;
66272;SDS011;58450;52.150;4.466;2023-08-01T02:35:22;13.70;;;3.97;;
66272;SDS011;58450;52.150;4.466;2023-08-01T02:37:50;11.38;;;3.70;;
66272;SDS011;58450;52.150;4.466;2023-08-01T02:40:17;11.82;;;3.85;;
66272;SDS011;58450;52.150;4.466;2023-08-01T02:42:45;10.60;;;3.70;;
66272;SDS011;58450;52.150;4.466;2023-08-01T02:45:12;11.07;;;3.65;;
66272;SDS011;58450;52.150;4.466;2023-08-01T02:47:41;13.00;;;3.70;;
66272;SDS011;58450;52.150;4.466;2023-08-01T02:50:09;12.30;;;3.88;;
66272;SDS011;58450;52.150;4.466;2023-08-01T02:52:36;13.80;;;4.10;;
66272;SDS011;58450;52.150;4.466;2023-08-01T02:55:04;12.18;;;4.05;;
66272;SDS011;58450;52.150;4.466;2023-08-01T02:57:33;13.15;;;4.35;;
66272;SDS011;58450;52.150;4.466;2023-08-01T03:00:00;14.57;;;4.28;;
66272;SDS011;58450;52.150;4.466;2023-08-01T03:02:31;14.45;;;4.05;;
66272;SDS011;58450;52.150;4.466;2023-08-01T03:05:00;10.90;;;3.95;;
66272;SDS011;58450;52.150;4.466;2023-08-01T03:07:30;14.90;;;3.88;;
66272;SDS011;58450;52.150;4.466;2023-08-01T03:09:58;12.25;;;4.30;;
66272;SDS011;58450;52.150;4.466;2023-08-01T03:12:25;14.25;;;4.22;;
66272;SDS011;58450;52.150;4.466;2023-08-01T03:14:53;12.50;;;4.22;;
66272;SDS011;58450;52.150;4.466;2023-08-01T03:17:21;12.05;;;4.45;;
66272;SDS011;58450;52.150;4.466;2023-08-01T03:19:49;14.52;;;4.78;;
66272;SDS011;58450;52.150;4.466;2023-08-01T03:22:18;12.18;;;4.07;;
66272;SDS011;58450;52.150;4.466;2023-08-01T03:24:45;16.25;;;4.50;;
66272;SDS011;58450;52.150;4.466;2023-08-01T03:27:13;11.77;;;4.30;;
66272;SDS011;58450;52.150;4.466;2023-08-01T03:29:40;16.08;;;4.82;;
66272;SDS011;58450;52.150;4.466;2023-08-01T03:32:08;12.90;;;3.80;;
66272;SDS011;58450;52.150;4.466;2023-08-01T03:34:35;14.32;;;4.10;;
66272;SDS011;58450;52.150;4.466;2023-08-01T03:37:05;11.68;;;3.88;;
66272;SDS011;58450;52.150;4.466;2023-08-01T03:39:33;13.07;;;3.72;;
66272;SDS011;58450;52.150;4.466;2023-08-01T03:42:01;11.05;;;3.75;;
66272;SDS011;58450;52.150;4.466;2023-08-01T03:44:29;12.93;;;4.07;;
66272;SDS011;58450;52.150;4.466;2023-08-01T03:46:57;12.43;;;4.05;;
66272;SDS011;58450;52.150;4.466;2023-08-01T03:49:25;12.63;;;4.15;;
66272;SDS011;58450;52.150;4.466;2023-08-01T03:51:53;10.30;;;3.58;;
66272;SDS011;58450;52.150;4.466;2023-08-01T03:54:20;15.50;;;4.25;;
66272;SDS011;58450;52.150;4.466;2023-08-01T03:56:49;10.57;;;3.60;;
66272;SDS011;58450;52.150;4.466;2023-08-01T03:59:17;16.85;;;4.28;;
66272;SDS011;58450;52.150;4.466;2023-08-01T04:01:45;12.30;;;3.95;;
66272;SDS011;58450;52.150;4.466;2023-08-01T04:04:12;12.02;;;3.45;;
66272;SDS011;58450;52.150;4.466;2023-08-01T04:06:40;13.45;;;3.33;;
66272;SDS011;58450;52.150;4.466;2023-08-01T04:09:07;13.95;;;3.65;;
66272;SDS011;58450;52.150;4.466;2023-08-01T04:11:35;11.55;;;3.70;;
66272;SDS011;58450;52.150;4.466;2023-08-01T04:14:04;15.27;;;3.40;;
66272;SDS011;58450;52.150;4.466;2023-08-01T04:16:31;12.75;;;3.55;;
66272;SDS011;58450;52.150;4.466;2023-08-01T04:18:59;11.55;;;3.85;;
66272;SDS011;58450;52.150;4.466;2023-08-01T04:21:26;12.27;;;3.30;;
66272;SDS011;58450;52.150;4.466;2023-08-01T04:23:54;8.43;;;3.00;;
66272;SDS011;58450;52.150;4.466;2023-08-01T04:26:21;12.55;;;3.95;;
66272;SDS011;58450;52.150;4.466;2023-08-01T04:28:49;9.35;;;3.20;;
66272;SDS011;58450;52.150;4.466;2023-08-01T04:31:18;8.48;;;3.22;;
66272;SDS011;58450;52.150;4.466;2023-08-01T04:33:45;11.18;;;3.35;;
66272;SDS011;58450;52.150;4.466;2023-08-01T04:36:13;9.00;;;3.03;;
66272;SDS011;58450;52.150;4.466;2023-08-01T04:38:41;10.18;;;3.05;;
66272;SDS011;58450;52.150;4.466;2023-08-01T04:41:08;9.32;;;2.95;;
66272;SDS011;58450;52.150;4.466;2023-08-01T04:43:36;11.68;;;2.97;;
66272;SDS011;58450;52.150;4.466;2023-08-01T04:46:03;12.80;;;3.25;;
66272;SDS011;58450;52.150;4.466;2023-08-01T04:48:32;12.63;;;3.20;;
66272;SDS011;58450;52.150;4.466;2023-08-01T04:51:00;8.13;;;2.95;;
66272;SDS011;58450;52.150;4.466;2023-08-01T04:53:27;8.52;;;2.78;;
66272;SDS011;58450;52.150;4.466;2023-08-01T04:55:55;7.88;;;2.88;;
66272;SDS011;58450;52.150;4.466;2023-08-01T04:58:23;8.70;;;2.90;;
66272;SDS011;58450;52.150;4.466;2023-08-01T05:00:50;11.32;;;3.28;;
66272;SDS011;58450;52.150;4.466;2023-08-01T05:03:18;8.13;;;2.70;;
66272;SDS011;58450;52.150;4.466;2023-08-01T05:05:47;11.05;;;2.80;;
66272;SDS011;58450;52.150;4.466;2023-08-01T05:08:14;10.88;;;3.25;;
66272;SDS011;58450;52.150;4.466;2023-08-01T05:10:42;9.15;;;2.70;;
66272;SDS011;58450;52.150;4.466;2023-08-01T05:13:09;7.93;;;2.80;;
66272;SDS011;58450;52.150;4.466;2023-08-01T05:15:37;9.40;;;2.95;;
66272;SDS011;58450;52.150;4.466;2023-08-01T05:18:05;10.55;;;3.38;;
66272;SDS011;58450;52.150;4.466;2023-08-01T05:20:32;10.43;;;3.00;;
66272;SDS011;58450;52.150;4.466;2023-08-01T05:23:01;10.90;;;2.85;;
66272;SDS011;58450;52.150;4.466;2023-08-01T05:25:29;12.25;;;2.85;;
66272;SDS011;58450;52.150;4.466;2023-08-01T05:27:56;10.60;;;2.72;;
66272;SDS011;58450;52.150;4.466;2023-08-01T05:30:24;8.95;;;2.60;;
66272;SDS011;58450;52.150;4.466;2023-08-01T05:32:52;8.02;;;2.67;;
66272;SDS011;58450;52.150;4.466;2023-08-01T05:35:19;6.60;;;2.25;;
66272;SDS011;58450;52.150;4.466;2023-08-01T05:37:47;9.20;;;2.30;;
66272;SDS011;58450;52.150;4.466;2023-08-01T05:40:16;8.10;;;2.38;;
66272;SDS011;58450;52.150;4.466;2023-08-01T05:42:44;11.15;;;2.80;;
66272;SDS011;58450;52.150;4.466;2023-08-01T05:45:12;10.00;;;2.38;;
66272;SDS011;58450;52.150;4.466;2023-08-01T05:47:39;8.77;;;2.28;;
66272;SDS011;58450;52.150;4.466;2023-08-01T05:50:08;8.90;;;2.67;;
66272;SDS011;58450;52.150;4.466;2023-08-01T05:52:36;8.73;;;2.55;;
66272;SDS011;58450;52.150;4.466;2023-08-01T05:55:04;8.10;;;2.50;;
66272;SDS011;58450;52.150;4.466;2023-08-01T05:57:34;9.07;;;2.78;;
66272;SDS011;58450;52.150;4.466;2023-08-01T06:00:02;8.90;;;2.50;;
66272;SDS011;58450;52.150;4.466;2023-08-01T06:02:30;7.13;;;2.55;;
66272;SDS011;58450;52.150;4.466;2023-08-01T06:04:58;8.05;;;2.60;;
66272;SDS011;58450;52.150;4.466;2023-08-01T06:07:25;9.02;;;2.53;;
66272;SDS011;58450;52.150;4.466;2023-08-01T06:09:53;7.97;;;2.80;;
66272;SDS011;58450;52.150;4.466;2023-08-01T06:12:20;9.88;;;2.58;;
66272;SDS011;58450;52.150;4.466;2023-08-01T06:14:49;9.38;;;3.08;;
66272;SDS011;58450;52.150;4.466;2023-08-01T06:17:18;9.13;;;2.67;;
66272;SDS011;58450;52.150;4.466;2023-08-01T06:19:45;7.38;;;2.63;;
66272;SDS011;58450;52.150;4.466;2023-08-01T06:22:13;10.23;;;3.15;;
66272;SDS011;58450;52.150;4.466;2023-08-01T06:24:41;10.73;;;3.30;;
66272;SDS011;58450;52.150;4.466;2023-08-01T06:27:08;12.90;;;3.30;;
66272;SDS011;58450;52.150;4.466;2023-08-01T06:29:36;10.52;;;3.20;;
66272;SDS011;58450;52.150;4.466;2023-08-01T06:32:06;11.15;;;3.08;;
66272;SDS011;58450;52.150;4.466;2023-08-01T06:34:34;10.00;;;3.42;;
66272;SDS011;58450;52.150;4.466;2023-08-01T06:37:02;8.68;;;2.92;;
66272;SDS011;58450;52.150;4.466;2023-08-01T06:39:30;9.23;;;2.90;;
66272;SDS011;58450;52.150;4.466;2023-08-01T06:41:58;9.93;;;3.13;;
66272;SDS011;58450;52.150;4.466;2023-08-01T06:44:25;9.00;;;2.90;;
66272;SDS011;58450;52.150;4.466;2023-08-01T06:46:53;9.02;;;2.60;;
66272;SDS011;58450;52.150;4.466;2023-08-01T06:49:22;9.18;;;2.85;;
66272;SDS011;58450;52.150;4.466;2023-08-01T06:51:49;9.43;;;2.63;;
66272;SDS011;58450;52.150;4.466;2023-08-01T06:54:17;7.30;;;2.42;;
66272;SDS011;58450;52.150;4.466;2023-08-01T06:56:45;10.25;;;2.88;;
66272;SDS011;58450;52.150;4.466;2023-08-01T06:59:14;7.43;;;2.25;;
66272;SDS011;58450;52.150;4.466;2023-08-01T07:01:42;8.52;;;2.58;;
66272;SDS011;58450;52.150;4.466;2023-08-01T07:04:10;7.00;;;2.25;;
66272;SDS011;58450;52.150;4.466;2023-08-01T07:06:39;6.22;;;2.40;;
66272;SDS011;58450;52.150;4.466;2023-08-01T07:09:07;8.30;;;2.20;;
66272;SDS011;58450;52.150;4.466;2023-08-01T07:11:36;8.70;;;2.80;;
66272;SDS011;58450;52.150;4.466;2023-08-01T07:14:03;8.10;;;2.33;;
66272;SDS011;58450;52.150;4.466;2023-08-01T07:16:31;12.02;;;2.72;;
66272;SDS011;58450;52.150;4.466;2023-08-01T07:18:59;7.30;;;2.60;;
66272;SDS011;58450;52.150;4.466;2023-08-01T07:21:27;7.45;;;2.35;;
66272;SDS011;58450;52.150;4.466;2023-08-01T07:23:56;9.57;;;2.15;;
66272;SDS011;58450;52.150;4.466;2023-08-01T07:26:24;9.30;;;2.10;;
66272;SDS011;58450;52.150;4.466;2023-08-01T07:28:54;6.93;;;2.25;;
66272;SDS011;58450;52.150;4.466;2023-08-01T07:31:22;5.72;;;2.00;;
66272;SDS011;58450;52.150;4.466;2023-08-01T07:33:49;7.65;;;2.25;;
66272;SDS011;58450;52.150;4.466;2023-08-01T07:36:17;8.43;;;2.35;;
66272;SDS011;58450;52.150;4.466;2023-08-01T07:38:44;8.68;;;2.15;;
66272;SDS011;58450;52.150;4.466;2023-08-01T07:41:13;5.38;;;2.13;;
66272;SDS011;58450;52.150;4.466;2023-08-01T07:43:41;6.18;;;2.10;;
66272;SDS011;58450;52.150;4.466;2023-08-01T07:46:08;6.63;;;2.00;;
66272;SDS011;58450;52.150;4.466;2023-08-01T07:48:37;7.28;;;2.17;;
66272;SDS011;58450;52.150;4.466;2023-08-01T07:51:05;9.85;;;2.20;;
66272;SDS011;58450;52.150;4.466;2023-08-01T07:53:33;10.13;;;2.33;;
66272;SDS011;58450;52.150;4.466;2023-08-01T07:56:01;8.00;;;2.33;;
66272;SDS011;58450;52.150;4.466;2023-08-01T07:58:30;6.40;;;2.30;;
66272;SDS011;58450;52.150;4.466;2023-08-01T08:01:01;10.80;;;2.67;;
66272;SDS011;58450;52.150;4.466;2023-08-01T08:03:30;10.40;;;2.67;;
66272;SDS011;58450;52.150;4.466;2023-08-01T08:05:58;9.27;;;2.35;;
66272;SDS011;58450;52.150;4.466;2023-08-01T08:08:26;13.25;;;2.88;;
66272;SDS011;58450;52.150;4.466;2023-08-01T08:10:54;7.43;;;2.38;;
66272;SDS011;58450;52.150;4.466;2023-08-01T08:13:22;7.93;;;2.35;;
66272;SDS011;58450;52.150;4.466;2023-08-01T08:15:52;6.28;;;2.05;;
66272;SDS011;58450;52.150;4.466;2023-08-01T08:18:23;7.57;;;2.42;;
66272;SDS011;58450;52.150;4.466;2023-08-01T08:20:50;10.82;;;2.30;;
66272;SDS011;58450;52.150;4.466;2023-08-01T08:23:18;7.45;;;2.05;;
66272;SDS011;58450;52.150;4.466;2023-08-01T08:25:45;10.25;;;2.70;;
66272;SDS011;58450;52.150;4.466;2023-08-01T08:28:14;10.15;;;2.50;;
66272;SDS011;58450;52.150;4.466;2023-08-01T08:30:41;9.68;;;2.63;;
66272;SDS011;58450;52.150;4.466;2023-08-01T08:33:19;8.50;;;2.42;;
66272;SDS011;58450;52.150;4.466;2023-08-01T08:35:47;10.25;;;2.63;;
66272;SDS011;58450;52.150;4.466;2023-08-01T08:38:14;12.52;;;2.80;;
66272;SDS011;58450;52.150;4.466;2023-08-01T08:40:45;10.43;;;2.40;;
66272;SDS011;58450;52.150;4.466;2023-08-01T08:43:26;8.73;;;2.47;;
66272;SDS011;58450;52.150;4.466;2023-08-01T08:45:56;7.05;;;2.15;;
66272;SDS011;58450;52.150;4.466;2023-08-01T08:48:28;7.25;;;2.20;;
66272;SDS011;58450;52.150;4.466;2023-08-01T08:50:57;7.40;;;2.50;;
66272;SDS011;58450;52.150;4.466;2023-08-01T08:53:25;6.43;;;2.17;;
66272;SDS011;58450;52.150;4.466;2023-08-01T08:55:53;4.75;;;1.90;;
66272;SDS011;58450;52.150;4.466;2023-08-01T08:58:22;6.20;;;2.20;;
66272;SDS011;58450;52.150;4.466;2023-08-01T09:00:50;8.82;;;2.33;;
66272;SDS011;58450;52.150;4.466;2023-08-01T09:03:18;7.65;;;2.22;;
66272;SDS011;58450;52.150;4.466;2023-08-01T09:05:48;7.55;;;2.10;;
66272;SDS011;58450;52.150;4.466;2023-08-01T09:08:21;8.32;;;1.92;;
66272;SDS011;58450;52.150;4.466;2023-08-01T09:10:54;8.05;;;2.42;;
66272;SDS011;58450;52.150;4.466;2023-08-01T09:13:21;7.38;;;2.35;;
66272;SDS011;58450;52.150;4.466;2023-08-01T09:15:49;9.23;;;2.33;;
66272;SDS011;58450;52.150;4.466;2023-08-01T09:18:19;7.78;;;2.70;;
66272;SDS011;58450;52.150;4.466;2023-08-01T09:20:49;11.13;;;2.53;;
66272;SDS011;58450;52.150;4.466;2023-08-01T09:23:17;6.75;;;2.10;;
66272;SDS011;58450;52.150;4.466;2023-08-01T09:25:44;6.63;;;1.90;;
66272;SDS011;58450;52.150;4.466;2023-08-01T09:28:16;8.45;;;2.10;;
66272;SDS011;58450;52.150;4.466;2023-08-01T09:30:49;9.00;;;2.42;;
66272;SDS011;58450;52.150;4.466;2023-08-01T09:33:20;8.63;;;2.30;;
66272;SDS011;58450;52.150;4.466;2023-08-01T09:35:50;7.32;;;2.10;;
66272;SDS011;58450;52.150;4.466;2023-08-01T09:38:18;8.45;;;2.20;;
66272;SDS011;58450;52.150;4.466;2023-08-01T09:40:46;7.43;;;2.50;;
66272;SDS011;58450;52.150;4.466;2023-08-01T09:43:15;7.32;;;2.17;;
66272;SDS011;58450;52.150;4.466;2023-08-01T09:45:49;6.97;;;1.98;;
66272;SDS011;58450;52.150;4.466;2023-08-01T09:48:22;9.20;;;2.40;;
66272;SDS011;58450;52.150;4.466;2023-08-01T09:53:33;8.23;;;2.35;;
66272;SDS011;58450;52.150;4.466;2023-08-01T09:56:02;7.78;;;2.30;;
66272;SDS011;58450;52.150;4.466;2023-08-01T09:58:31;5.22;;;1.90;;
66272;SDS011;58450;52.150;4.466;2023-08-01T10:01:01;9.07;;;2.40;;
66272;SDS011;58450;52.150;4.466;2023-08-01T10:03:28;6.40;;;2.22;;
66272;SDS011;58450;52.150;4.466;2023-08-01T10:05:58;9.48;;;2.70;;
66272;SDS011;58450;52.150;4.466;2023-08-01T10:08:28;6.28;;;2.00;;
66272;SDS011;58450;52.150;4.466;2023-08-01T10:10:58;10.73;;;2.22;;
66272;SDS011;58450;52.150;4.466;2023-08-01T10:13:25;7.57;;;2.20;;
66272;SDS011;58450;52.150;4.466;2023-08-01T10:15:55;8.07;;;2.30;;
66272;SDS011;58450;52.150;4.466;2023-08-01T10:18:23;14.73;;;2.53;;
66272;SDS011;58450;52.150;4.466;2023-08-01T10:20:52;8.90;;;2.22;;
66272;SDS011;58450;52.150;4.466;2023-08-01T10:23:22;7.30;;;2.08;;
66272;SDS011;58450;52.150;4.466;2023-08-01T10:25:51;9.05;;;2.22;;
66272;SDS011;58450;52.150;4.466;2023-08-01T10:28:30;6.07;;;2.13;;
66272;SDS011;58450;52.150;4.466;2023-08-01T10:31:09;7.50;;;1.90;;
66272;SDS011;58450;52.150;4.466;2023-08-01T10:33:38;6.38;;;1.90;;
66272;SDS011;58450;52.150;4.466;2023-08-01T10:36:14;8.50;;;2.08;;
66272;SDS011;58450;52.150;4.466;2023-08-01T10:38:48;6.25;;;2.03;;
66272;SDS011;58450;52.150;4.466;2023-08-01T10:41:18;8.18;;;2.35;;
66272;SDS011;58450;52.150;4.466;2023-08-01T10:43:48;8.40;;;2.50;;
66272;SDS011;58450;52.150;4.466;2023-08-01T10:46:15;11.13;;;2.40;;
66272;SDS011;58450;52.150;4.466;2023-08-01T10:48:49;10.73;;;2.78;;
66272;SDS011;58450;52.150;4.466;2023-08-01T10:51:19;7.97;;;2.38;;
66272;SDS011;58450;52.150;4.466;2023-08-01T10:53:48;7.93;;;2.22;;
66272;SDS011;58450;52.150;4.466;2023-08-01T10:56:16;7.97;;;2.20;;
66272;SDS011;58450;52.150;4.466;2023-08-01T10:58:45;9.50;;;2.50;;
66272;SDS011;58450;52.150;4.466;2023-08-01T11:01:14;9.40;;;2.30;;
66272;SDS011;58450;52.150;4.466;2023-08-01T11:03:41;12.73;;;2.30;;
66272;SDS011;58450;52.150;4.466;2023-08-01T11:06:10;8.75;;;2.75;;
66272;SDS011;58450;52.150;4.466;2023-08-01T11:08:37;6.28;;;1.90;;
66272;SDS011;58450;52.150;4.466;2023-08-01T11:11:10;8.43;;;1.83;;
66272;SDS011;58450;52.150;4.466;2023-08-01T11:13:40;6.63;;;1.92;;
66272;SDS011;58450;52.150;4.466;2023-08-01T11:16:08;7.90;;;1.80;;
66272;SDS011;58450;52.150;4.466;2023-08-01T11:18:42;8.48;;;2.13;;
66272;SDS011;58450;52.150;4.466;2023-08-01T11:21:11;9.43;;;2.25;;
66272;SDS011;58450;52.150;4.466;2023-08-01T11:23:40;7.07;;;2.20;;
66272;SDS011;58450;52.150;4.466;2023-08-01T11:26:09;8.90;;;2.20;;
66272;SDS011;58450;52.150;4.466;2023-08-01T11:28:38;8.38;;;1.88;;
66272;SDS011;58450;52.150;4.466;2023-08-01T11:31:10;7.20;;;1.98;;
66272;SDS011;58450;52.150;4.466;2023-08-01T11:33:38;6.35;;;1.40;;
66272;SDS011;58450;52.150;4.466;2023-08-01T11:36:06;9.95;;;2.10;;
66272;SDS011;58450;52.150;4.466;2023-08-01T11:38:36;6.03;;;1.67;;
66272;SDS011;58450;52.150;4.466;2023-08-01T11:41:04;7.57;;;1.75;;
66272;SDS011;58450;52.150;4.466;2023-08-01T11:43:39;10.05;;;1.95;;
66272;SDS011;58450;52.150;4.466;2023-08-01T11:46:08;7.88;;;2.00;;
66272;SDS011;58450;52.150;4.466;2023-08-01T11:48:36;10.80;;;2.08;;
66272;SDS011;58450;52.150;4.466;2023-08-01T11:51:04;8.02;;;1.95;;
66272;SDS011;58450;52.150;4.466;2023-08-01T11:53:32;7.13;;;2.70;;
66272;SDS011;58450;52.150;4.466;2023-08-01T11:56:04;9.57;;;2.10;;
66272;SDS011;58450;52.150;4.466;2023-08-01T11:58:33;8.30;;;2.05;;
66272;SDS011;58450;52.150;4.466;2023-08-01T12:01:04;9.02;;;2.30;;
66272;SDS011;58450;52.150;4.466;2023-08-01T12:03:41;7.40;;;1.98;;
66272;SDS011;58450;52.150;4.466;2023-08-01T12:06:09;8.13;;;1.83;;
66272;SDS011;58450;52.150;4.466;2023-08-01T12:08:39;7.30;;;1.73;;
66272;SDS011;58450;52.150;4.466;2023-08-01T12:11:17;8.57;;;2.03;;
66272;SDS011;58450;52.150;4.466;2023-08-01T12:13:48;9.05;;;2.42;;
66272;SDS011;58450;52.150;4.466;2023-08-01T12:16:28;5.28;;;1.65;;
66272;SDS011;58450;52.150;4.466;2023-08-01T12:18:56;12.13;;;2.30;;
66272;SDS011;58450;52.150;4.466;2023-08-01T12:21:24;7.38;;;2.10;;
66272;SDS011;58450;52.150;4.466;2023-08-01T12:23:52;5.65;;;1.75;;
66272;SDS011;58450;52.150;4.466;2023-08-01T12:26:19;7.72;;;1.95;;
66272;SDS011;58450;52.150;4.466;2023-08-01T12:28:47;6.95;;;1.67;;
66272;SDS011;58450;52.150;4.466;2023-08-01T12:31:17;7.78;;;2.08;;
66272;SDS011;58450;52.150;4.466;2023-08-01T12:33:46;6.97;;;1.83;;
66272;SDS011;58450;52.150;4.466;2023-08-01T12:36:15;8.88;;;2.13;;
66272;SDS011;58450;52.150;4.466;2023-08-01T12:38:43;8.60;;;2.30;;
66272;SDS011;58450;52.150;4.466;2023-08-01T12:41:10;6.72;;;1.70;;
66272;SDS011;58450;52.150;4.466;2023-08-01T12:43:38;7.68;;;2.10;;
66272;SDS011;58450;52.150;4.466;2023-08-01T12:46:05;6.53;;;1.75;;
66272;SDS011;58450;52.150;4.466;2023-08-01T12:48:33;6.63;;;1.77;;
66272;SDS011;58450;52.150;4.466;2023-08-01T12:51:02;11.02;;;1.92;;
66272;SDS011;58450;52.150;4.466;2023-08-01T12:53:29;9.05;;;2.10;;
66272;SDS011;58450;52.150;4.466;2023-08-01T12:55:57;7.82;;;1.70;;
66272;SDS011;58450;52.150;4.466;2023-08-01T12:58:25;9.05;;;2.00;;
66272;SDS011;58450;52.150;4.466;2023-08-01T13:00:53;8.52;;;1.75;;
66272;SDS011;58450;52.150;4.466;2023-08-01T13:03:21;7.68;;;2.10;;
66272;SDS011;58450;52.150;4.466;2023-08-01T13:05:48;9.68;;;1.92;;
66272;SDS011;58450;52.150;4.466;2023-08-01T13:08:17;6.45;;;2.00;;
66272;SDS011;58450;52.150;4.466;2023-08-01T13:10:45;11.23;;;2.30;;
66272;SDS011;58450;52.150;4.466;2023-08-01T13:13:15;9.15;;;2.20;;
66272;SDS011;58450;52.150;4.466;2023-08-01T13:15:43;9.43;;;2.10;;
66272;SDS011;58450;52.150;4.466;2023-08-01T13:18:11;8.10;;;2.10;;
66272;SDS011;58450;52.150;4.466;2023-08-01T13:20:38;8.45;;;1.92;;
66272;SDS011;58450;52.150;4.466;2023-08-01T13:23:06;11.20;;;2.28;;
66272;SDS011;58450;52.150;4.466;2023-08-01T13:25:35;9.65;;;2.30;;
66272;SDS011;58450;52.150;4.466;2023-08-01T13:28:03;8.63;;;2.00;;
66272;SDS011;58450;52.150;4.466;2023-08-01T13:30:31;7.57;;;1.95;;
66272;SDS011;58450;52.150;4.466;2023-08-01T13:32:58;7.65;;;2.05;;
66272;SDS011;58450;52.150;4.466;2023-08-01T13:35:26;12.98;;;2.20;;
66272;SDS011;58450;52.150;4.466;2023-08-01T13:37:54;9.98;;;2.38;;
66272;SDS011;58450;52.150;4.466;2023-08-01T13:40:21;6.85;;;1.83;;
66272;SDS011;58450;52.150;4.466;2023-08-01T13:42:50;7.55;;;1.85;;
66272;SDS011;58450;52.150;4.466;2023-08-01T13:45:18;7.97;;;1.85;;
66272;SDS011;58450;52.150;4.466;2023-08-01T13:47:45;7.45;;;1.83;;
66272;SDS011;58450;52.150;4.466;2023-08-01T13:50:13;7.82;;;1.80;;
66272;SDS011;58450;52.150;4.466;2023-08-01T13:52:41;8.27;;;2.03;;
66272;SDS011;58450;52.150;4.466;2023-08-01T13:55:09;8.15;;;1.92;;
66272;SDS011;58450;52.150;4.466;2023-08-01T13:57:38;12.00;;;2.25;;
66272;SDS011;58450;52.150;4.466;2023-08-01T14:00:07;8.25;;;2.00;;
66272;SDS011;58450;52.150;4.466;2023-08-01T14:02:37;7.90;;;2.05;;
66272;SDS011;58450;52.150;4.466;2023-08-01T14:05:05;6.85;;;2.15;;
66272;SDS011;58450;52.150;4.466;2023-08-01T14:07:34;8.93;;;2.28;;
66272;SDS011;58450;52.150;4.466;2023-08-01T14:10:03;8.30;;;2.35;;
66272;SDS011;58450;52.150;4.466;2023-08-01T14:12:32;8.77;;;2.33;;
66272;SDS011;58450;52.150;4.466;2023-08-01T14:14:59;7.80;;;1.90;;
66272;SDS011;58450;52.150;4.466;2023-08-01T14:17:28;9.50;;;2.10;;
66272;SDS011;58450;52.150;4.466;2023-08-01T14:19:56;11.65;;;2.45;;
66272;SDS011;58450;52.150;4.466;2023-08-01T14:22:23;9.85;;;1.98;;
66272;SDS011;58450;52.150;4.466;2023-08-01T14:24:51;8.10;;;2.10;;
66272;SDS011;58450;52.150;4.466;2023-08-01T14:27:18;8.90;;;2.20;;
66272;SDS011;58450;52.150;4.466;2023-08-01T14:29:46;9.98;;;2.10;;
66272;SDS011;58450;52.150;4.466;2023-08-01T14:32:15;4.75;;;1.63;;
66272;SDS011;58450;52.150;4.466;2023-08-01T14:34:46;5.03;;;1.50;;
66272;SDS011;58450;52.150;4.466;2023-08-01T14:37:14;4.95;;;1.05;;
66272;SDS011;58450;52.150;4.466;2023-08-01T14:39:41;5.95;;;1.30;;
66272;SDS011;58450;52.150;4.466;2023-08-01T14:42:10;4.78;;;1.50;;
66272;SDS011;58450;52.150;4.466;2023-08-01T14:44:37;7.10;;;1.73;;
66272;SDS011;58450;52.150;4.466;2023-08-01T14:47:05;5.28;;;1.30;;
66272;SDS011;58450;52.150;4.466;2023-08-01T14:49:33;3.65;;;1.30;;
66272;SDS011;58450;52.150;4.466;2023-08-01T14:52:02;8.75;;;1.83;;
66272;SDS011;58450;52.150;4.466;2023-08-01T14:54:30;5.95;;;1.15;;